sensor_id;sensor_type;location;lat;lon;timestamp;temperature;humidity
14709;DHT22;7445;50.774;4.944;2022-12-29T08:29:36;9.80;99.90
14709;DHT22;7445;50.774;4.944;2022-12-29T08:32:02;9.80;99.90
14709;DHT22;7445;50.774;4.944;2022-12-29T08:34:32;9.80;99.90
14709;DHT22;7445;50.774;4.944;2022-12-29T08:36:58;9.80;99.90
14709;DHT22;7445;50.774;4.944;2022-12-29T08:39:26;9.90;99.90
14709;DHT22;7445;50.774;4.944;2022-12-29T08:41:55;9.90;99.90
14709;DHT22;7445;50.774;4.944;2022-12-29T08:44:23;9.90;99.90
14709;DHT22;7445;50.774;4.944;2022-12-29T08:49:43;9.90;99.90
14709;DHT22;7445;50.774;4.944;2022-12-29T08:52:10;9.90;99.90
14709;DHT22;7445;50.774;4.944;2022-12-29T08:54:54;9.90;99.90
14709;DHT22;7445;50.774;4.944;2022-12-29T08:57:20;9.90;99.90
14709;DHT22;7445;50.774;4.944;2022-12-29T08:59:46;9.90;99.90
14709;DHT22;7445;50.774;4.944;2022-12-29T09:02:14;9.90;99.90
14709;DHT22;7445;50.774;4.944;2022-12-29T09:04:42;9.90;99.90
14709;DHT22;7445;50.774;4.944;2022-12-29T09:07:25;9.80;99.90
14709;DHT22;7445;50.774;4.944;2022-12-29T09:09:54;9.90;99.90
14709;DHT22;7445;50.774;4.944;2022-12-29T09:12:29;9.80;99.90
14709;DHT22;7445;50.774;4.944;2022-12-29T09:15:04;9.80;99.90
14709;DHT22;7445;50.774;4.944;2022-12-29T09:17:34;9.70;99.90
14709;DHT22;7445;50.774;4.944;2022-12-29T09:20:29;9.80;99.90
14709;DHT22;7445;50.774;4.944;2022-12-29T09:22:54;9.80;99.90
14709;DHT22;7445;50.774;4.944;2022-12-29T09:26:15;9.80;99.90
14709;DHT22;7445;50.774;4.944;2022-12-29T09:28:11;9.80;99.90
14709;DHT22;7445;50.774;4.944;2022-12-29T09:30:41;9.80;99.90
14709;DHT22;7445;50.774;4.944;2022-12-29T09:33:07;9.90;99.90
14709;DHT22;7445;50.774;4.944;2022-12-29T09:35:33;9.90;99.90
14709;DHT22;7445;50.774;4.944;2022-12-29T09:37:59;9.90;99.90
14709;DHT22;7445;50.774;4.944;2022-12-29T09:40:30;9.90;99.90
14709;DHT22;7445;50.774;4.944;2022-12-29T09:49:24;9.90;99.90
14709;DHT22;7445;50.774;4.944;2022-12-29T09:51:55;9.80;99.90
14709;DHT22;7445;50.774;4.944;2022-12-29T09:54:41;9.90;99.90
14709;DHT22;7445;50.774;4.944;2022-12-29T09:57:18;9.90;99.90
14709;DHT22;7445;50.774;4.944;2022-12-29T09:59:46;9.90;99.90
14709;DHT22;7445;50.774;4.944;2022-12-29T10:04:57;9.90;99.90
14709;DHT22;7445;50.774;4.944;2022-12-29T10:07:33;9.90;99.90
14709;DHT22;7445;50.774;4.944;2022-12-29T10:10:20;9.90;99.90
14709;DHT22;7445;50.774;4.944;2022-12-29T10:13:03;9.90;99.90
14709;DHT22;7445;50.774;4.944;2022-12-29T10:15:46;9.80;99.90
14709;DHT22;7445;50.774;4.944;2022-12-29T10:21:28;9.80;99.90
14709;DHT22;7445;50.774;4.944;2022-12-29T10:23:56;9.80;99.90
14709;DHT22;7445;50.774;4.944;2022-12-29T10:26:24;9.80;99.90
14709;DHT22;7445;50.774;4.944;2022-12-29T10:28:56;9.90;99.90
14709;DHT22;7445;50.774;4.944;2022-12-29T10:31:25;10.10;99.90
14709;DHT22;7445;50.774;4.944;2022-12-29T10:33:59;10.20;99.90
14709;DHT22;7445;50.774;4.944;2022-12-29T10:36:38;10.30;99.90
14709;DHT22;7445;50.774;4.944;2022-12-29T10:39:06;10.40;99.90
14709;DHT22;7445;50.774;4.944;2022-12-29T10:41:43;10.50;99.90
14709;DHT22;7445;50.774;4.944;2022-12-29T10:44:14;10.70;99.90
14709;DHT22;7445;50.774;4.944;2022-12-29T10:46:42;10.80;99.90
14709;DHT22;7445;50.774;4.944;2022-12-29T10:49:15;10.80;99.90
14709;DHT22;7445;50.774;4.944;2022-12-29T10:51:42;10.70;99.90
14709;DHT22;7445;50.774;4.944;2022-12-29T10:54:23;10.70;99.90
14709;DHT22;7445;50.774;4.944;2022-12-29T10:56:59;10.70;99.90
14709;DHT22;7445;50.774;4.944;2022-12-29T10:59:30;10.70;99.90
14709;DHT22;7445;50.774;4.944;2022-12-29T11:07:24;11.00;99.90
14709;DHT22;7445;50.774;4.944;2022-12-29T11:09:51;11.00;99.90
14709;DHT22;7445;50.774;4.944;2022-12-29T11:14:48;11.10;99.90
14709;DHT22;7445;50.774;4.944;2022-12-29T11:17:25;11.10;99.90
14709;DHT22;7445;50.774;4.944;2022-12-29T11:19:51;11.10;99.90
14709;DHT22;7445;50.774;4.944;2022-12-29T11:22:28;11.00;99.90
14709;DHT22;7445;50.774;4.944;2022-12-29T11:24:54;10.90;99.90
14709;DHT22;7445;50.774;4.944;2022-12-29T11:27:30;10.90;99.90
14709;DHT22;7445;50.774;4.944;2022-12-29T11:29:56;10.80;99.90
14709;DHT22;7445;50.774;4.944;2022-12-29T11:32:27;10.70;99.90
14709;DHT22;7445;50.774;4.944;2022-12-29T11:34:56;10.80;99.90
14709;DHT22;7445;50.774;4.944;2022-12-29T11:37:32;10.70;99.90
14709;DHT22;7445;50.774;4.944;2022-12-29T11:40:06;10.70;99.90
14709;DHT22;7445;50.774;4.944;2022-12-29T11:43:01;10.70;99.90
14709;DHT22;7445;50.774;4.944;2022-12-29T11:45:32;10.80;99.90
14709;DHT22;7445;50.774;4.944;2022-12-29T11:48:07;10.80;99.90
14709;DHT22;7445;50.774;4.944;2022-12-29T11:50:37;10.70;99.90
14709;DHT22;7445;50.774;4.944;2022-12-29T11:53:07;10.80;99.90
14709;DHT22;7445;50.774;4.944;2022-12-29T11:55:38;10.80;99.90
14709;DHT22;7445;50.774;4.944;2022-12-29T11:58:04;10.80;99.90
14709;DHT22;7445;50.774;4.944;2022-12-29T12:00:36;10.90;99.90
14709;DHT22;7445;50.774;4.944;2022-12-29T12:03:18;10.90;99.90
14709;DHT22;7445;50.774;4.944;2022-12-29T12:06:01;10.90;99.90
14709;DHT22;7445;50.774;4.944;2022-12-29T12:08:34;10.90;99.90
14709;DHT22;7445;50.774;4.944;2022-12-29T12:14:04;11.00;99.90
14709;DHT22;7445;50.774;4.944;2022-12-29T12:16:53;10.90;99.90
14709;DHT22;7445;50.774;4.944;2022-12-29T12:19:32;10.90;99.90
14709;DHT22;7445;50.774;4.944;2022-12-29T12:22:08;10.90;99.90
14709;DHT22;7445;50.774;4.944;2022-12-29T12:24:44;11.00;99.90
14709;DHT22;7445;50.774;4.944;2022-12-29T12:27:20;11.00;99.90
14709;DHT22;7445;50.774;4.944;2022-12-29T12:35:14;10.90;99.90
14709;DHT22;7445;50.774;4.944;2022-12-29T12:38:04;11.00;99.90
14709;DHT22;7445;50.774;4.944;2022-12-29T12:43:43;11.00;99.90
14709;DHT22;7445;50.774;4.944;2022-12-29T12:46:30;11.00;99.90
14709;DHT22;7445;50.774;4.944;2022-12-29T12:52:17;11.00;99.90
14709;DHT22;7445;50.774;4.944;2022-12-29T12:58:05;10.90;99.90
14709;DHT22;7445;50.774;4.944;2022-12-29T13:00:56;10.90;99.90
14709;DHT22;7445;50.774;4.944;2022-12-29T13:11:56;10.80;99.90
14709;DHT22;7445;50.774;4.944;2022-12-29T13:14:46;10.70;99.90
14709;DHT22;7445;50.774;4.944;2022-12-29T13:18:00;10.80;99.90
14709;DHT22;7445;50.774;4.944;2022-12-29T13:23:21;10.70;99.90
14709;DHT22;7445;50.774;4.944;2022-12-29T13:26:23;10.70;99.90
14709;DHT22;7445;50.774;4.944;2022-12-29T13:29:03;10.80;99.90
14709;DHT22;7445;50.774;4.944;2022-12-29T13:37:02;10.80;99.90
14709;DHT22;7445;50.774;4.944;2022-12-29T13:39:36;10.80;99.90
14709;DHT22;7445;50.774;4.944;2022-12-29T13:42:03;10.70;99.90
14709;DHT22;7445;50.774;4.944;2022-12-29T13:44:46;10.70;99.90
14709;DHT22;7445;50.774;4.944;2022-12-29T13:47:40;10.70;99.90
14709;DHT22;7445;50.774;4.944;2022-12-29T13:50:22;10.70;99.90
14709;DHT22;7445;50.774;4.944;2022-12-29T14:01:59;10.70;99.90
14709;DHT22;7445;50.774;4.944;2022-12-29T14:04:29;10.70;99.90
14709;DHT22;7445;50.774;4.944;2022-12-29T14:07:15;10.80;99.90
14709;DHT22;7445;50.774;4.944;2022-12-29T14:09:46;10.90;99.90
14709;DHT22;7445;50.774;4.944;2022-12-29T14:17:35;11.00;99.90
14709;DHT22;7445;50.774;4.944;2022-12-29T14:20:02;11.00;99.90
14709;DHT22;7445;50.774;4.944;2022-12-29T14:22:29;11.00;99.90
14709;DHT22;7445;50.774;4.944;2022-12-29T14:24:55;10.90;99.90
14709;DHT22;7445;50.774;4.944;2022-12-29T14:29:54;10.90;99.90
14709;DHT22;7445;50.774;4.944;2022-12-29T14:34:56;10.70;99.90
14709;DHT22;7445;50.774;4.944;2022-12-29T14:37:26;10.50;99.90
14709;DHT22;7445;50.774;4.944;2022-12-29T14:40:08;10.40;99.90
14709;DHT22;7445;50.774;4.944;2022-12-29T14:42:39;10.30;99.90
14709;DHT22;7445;50.774;4.944;2022-12-29T14:47:45;10.20;99.90
14709;DHT22;7445;50.774;4.944;2022-12-29T14:52:54;10.20;99.90
14709;DHT22;7445;50.774;4.944;2022-12-29T14:58:06;10.10;99.90
14709;DHT22;7445;50.774;4.944;2022-12-29T15:00:35;10.20;99.90
14709;DHT22;7445;50.774;4.944;2022-12-29T15:03:18;10.10;99.90
14709;DHT22;7445;50.774;4.944;2022-12-29T15:06:07;10.10;99.90
14709;DHT22;7445;50.774;4.944;2022-12-29T15:08:46;10.00;99.90
14709;DHT22;7445;50.774;4.944;2022-12-29T15:11:44;9.90;99.90
14709;DHT22;7445;50.774;4.944;2022-12-29T15:14:31;9.80;99.90
14709;DHT22;7445;50.774;4.944;2022-12-29T15:16:57;9.60;99.90
14709;DHT22;7445;50.774;4.944;2022-12-29T15:19:24;9.30;99.90
14709;DHT22;7445;50.774;4.944;2022-12-29T15:21:51;9.20;99.90
14709;DHT22;7445;50.774;4.944;2022-12-29T15:24:17;9.10;99.90
14709;DHT22;7445;50.774;4.944;2022-12-29T15:26:46;9.10;99.90
14709;DHT22;7445;50.774;4.944;2022-12-29T15:32:01;9.00;99.90
14709;DHT22;7445;50.774;4.944;2022-12-29T15:34:30;8.90;99.90
14709;DHT22;7445;50.774;4.944;2022-12-29T15:36:55;8.90;99.90
14709;DHT22;7445;50.774;4.944;2022-12-29T15:39:29;8.80;99.90
14709;DHT22;7445;50.774;4.944;2022-12-29T15:44:54;8.70;99.90
14709;DHT22;7445;50.774;4.944;2022-12-29T15:47:25;8.60;99.90
14709;DHT22;7445;50.774;4.944;2022-12-29T15:50:12;8.70;99.90
14709;DHT22;7445;50.774;4.944;2022-12-29T15:52:40;8.80;99.90
14709;DHT22;7445;50.774;4.944;2022-12-29T15:55:30;8.80;99.90
14709;DHT22;7445;50.774;4.944;2022-12-29T15:57:58;8.80;99.90
14709;DHT22;7445;50.774;4.944;2022-12-29T16:00:28;8.80;99.90
14709;DHT22;7445;50.774;4.944;2022-12-29T16:02:55;8.70;99.90
14709;DHT22;7445;50.774;4.944;2022-12-29T16:05:21;8.50;99.90
14709;DHT22;7445;50.774;4.944;2022-12-29T16:07:58;8.40;99.90
14709;DHT22;7445;50.774;4.944;2022-12-29T16:15:47;8.00;99.90
14709;DHT22;7445;50.774;4.944;2022-12-29T16:18:24;8.00;99.90
14709;DHT22;7445;50.774;4.944;2022-12-29T16:20:51;7.90;99.90
14709;DHT22;7445;50.774;4.944;2022-12-29T16:23:27;7.90;99.90
14709;DHT22;7445;50.774;4.944;2022-12-29T16:25:55;7.80;99.90
14709;DHT22;7445;50.774;4.944;2022-12-29T16:28:28;7.70;99.90
14709;DHT22;7445;50.774;4.944;2022-12-29T16:33:57;7.60;99.90
14709;DHT22;7445;50.774;4.944;2022-12-29T16:36:34;7.60;99.90
14709;DHT22;7445;50.774;4.944;2022-12-29T16:39:31;7.50;99.90
14709;DHT22;7445;50.774;4.944;2022-12-29T16:41:57;7.40;99.90
14709;DHT22;7445;50.774;4.944;2022-12-29T16:44:28;7.40;99.90
14709;DHT22;7445;50.774;4.944;2022-12-29T16:47:19;7.30;99.90
14709;DHT22;7445;50.774;4.944;2022-12-29T16:49:50;7.30;99.90
14709;DHT22;7445;50.774;4.944;2022-12-29T16:52:24;7.30;99.90
14709;DHT22;7445;50.774;4.944;2022-12-29T16:54:53;7.30;99.90
14709;DHT22;7445;50.774;4.944;2022-12-29T16:57:46;7.30;99.90
14709;DHT22;7445;50.774;4.944;2022-12-29T17:00:22;7.30;99.90
14709;DHT22;7445;50.774;4.944;2022-12-29T17:02:50;7.30;99.90
14709;DHT22;7445;50.774;4.944;2022-12-29T17:05:17;7.40;99.90
14709;DHT22;7445;50.774;4.944;2022-12-29T17:07:44;7.40;99.90
14709;DHT22;7445;50.774;4.944;2022-12-29T17:10:10;7.50;99.90
14709;DHT22;7445;50.774;4.944;2022-12-29T17:12:36;7.60;99.90
14709;DHT22;7445;50.774;4.944;2022-12-29T17:15:07;7.70;99.90
14709;DHT22;7445;50.774;4.944;2022-12-29T17:17:47;7.70;99.90
14709;DHT22;7445;50.774;4.944;2022-12-29T17:22:42;7.70;99.90
14709;DHT22;7445;50.774;4.944;2022-12-29T17:25:16;7.70;99.90
14709;DHT22;7445;50.774;4.944;2022-12-29T17:27:44;7.60;99.90
14709;DHT22;7445;50.774;4.944;2022-12-29T17:30:14;7.60;99.90
14709;DHT22;7445;50.774;4.944;2022-12-29T17:32:41;7.60;99.90
14709;DHT22;7445;50.774;4.944;2022-12-29T17:35:14;7.50;99.90
14709;DHT22;7445;50.774;4.944;2022-12-29T17:37:40;7.40;99.90
14709;DHT22;7445;50.774;4.944;2022-12-29T17:40:07;7.40;99.90
14709;DHT22;7445;50.774;4.944;2022-12-29T17:42:38;7.30;99.90
14709;DHT22;7445;50.774;4.944;2022-12-29T17:45:13;7.20;99.90
14709;DHT22;7445;50.774;4.944;2022-12-29T17:47:39;7.20;99.90
14709;DHT22;7445;50.774;4.944;2022-12-29T17:50:05;7.10;99.90
14709;DHT22;7445;50.774;4.944;2022-12-29T17:52:31;7.10;99.90
14709;DHT22;7445;50.774;4.944;2022-12-29T17:54:57;7.10;99.90
14709;DHT22;7445;50.774;4.944;2022-12-29T17:57:23;7.00;99.90
14709;DHT22;7445;50.774;4.944;2022-12-29T17:59:49;7.00;99.90
14709;DHT22;7445;50.774;4.944;2022-12-29T18:02:29;7.00;99.90
14709;DHT22;7445;50.774;4.944;2022-12-29T18:04:57;6.90;99.90
14709;DHT22;7445;50.774;4.944;2022-12-29T18:07:25;6.80;99.90
14709;DHT22;7445;50.774;4.944;2022-12-29T18:09:52;6.90;99.90
14709;DHT22;7445;50.774;4.944;2022-12-29T18:12:39;6.80;99.90
14709;DHT22;7445;50.774;4.944;2022-12-29T18:15:21;6.90;99.90
14709;DHT22;7445;50.774;4.944;2022-12-29T18:17:48;6.80;99.90
14709;DHT22;7445;50.774;4.944;2022-12-29T18:20:15;6.80;99.90
14709;DHT22;7445;50.774;4.944;2022-12-29T18:22:41;6.80;99.90
14709;DHT22;7445;50.774;4.944;2022-12-29T18:25:24;6.80;99.90
14709;DHT22;7445;50.774;4.944;2022-12-29T18:27:50;6.80;99.90
14709;DHT22;7445;50.774;4.944;2022-12-29T18:30:16;6.80;99.90
14709;DHT22;7445;50.774;4.944;2022-12-29T18:32:42;6.80;99.90
14709;DHT22;7445;50.774;4.944;2022-12-29T18:35:25;6.80;99.90
14709;DHT22;7445;50.774;4.944;2022-12-29T18:37:50;6.80;99.90
14709;DHT22;7445;50.774;4.944;2022-12-29T18:40:16;6.80;99.90
14709;DHT22;7445;50.774;4.944;2022-12-29T18:42:44;6.70;99.90
14709;DHT22;7445;50.774;4.944;2022-12-29T18:45:19;6.70;99.90
14709;DHT22;7445;50.774;4.944;2022-12-29T18:47:45;6.70;99.90
14709;DHT22;7445;50.774;4.944;2022-12-29T18:50:11;6.70;99.90
14709;DHT22;7445;50.774;4.944;2022-12-29T18:52:36;6.80;99.90
14709;DHT22;7445;50.774;4.944;2022-12-29T18:55:02;6.80;99.90
14709;DHT22;7445;50.774;4.944;2022-12-29T18:57:28;6.90;99.90
14709;DHT22;7445;50.774;4.944;2022-12-29T18:59:56;6.90;99.90
14709;DHT22;7445;50.774;4.944;2022-12-29T19:02:21;6.90;99.90
14709;DHT22;7445;50.774;4.944;2022-12-29T19:04:47;6.90;99.90
14709;DHT22;7445;50.774;4.944;2022-12-29T19:07:13;6.90;99.90
14709;DHT22;7445;50.774;4.944;2022-12-29T19:09:38;6.90;99.90
14709;DHT22;7445;50.774;4.944;2022-12-29T19:12:04;6.90;99.90
14709;DHT22;7445;50.774;4.944;2022-12-29T19:14:30;7.00;99.90
14709;DHT22;7445;50.774;4.944;2022-12-29T19:16:55;7.00;99.90
14709;DHT22;7445;50.774;4.944;2022-12-29T19:19:21;7.00;99.90
14709;DHT22;7445;50.774;4.944;2022-12-29T19:21:46;7.00;99.90
14709;DHT22;7445;50.774;4.944;2022-12-29T19:24:12;7.00;99.90
14709;DHT22;7445;50.774;4.944;2022-12-29T19:26:39;7.10;99.90
14709;DHT22;7445;50.774;4.944;2022-12-29T19:29:07;7.10;99.90
14709;DHT22;7445;50.774;4.944;2022-12-29T19:31:37;7.00;99.90
14709;DHT22;7445;50.774;4.944;2022-12-29T19:34:03;7.00;99.90
14709;DHT22;7445;50.774;4.944;2022-12-29T19:36:29;7.00;99.90
14709;DHT22;7445;50.774;4.944;2022-12-29T19:38:54;7.00;99.90
14709;DHT22;7445;50.774;4.944;2022-12-29T19:41:20;7.00;99.90
14709;DHT22;7445;50.774;4.944;2022-12-29T19:43:46;6.90;99.90
14709;DHT22;7445;50.774;4.944;2022-12-29T19:46:15;6.90;99.90
14709;DHT22;7445;50.774;4.944;2022-12-29T19:48:41;6.80;99.90
14709;DHT22;7445;50.774;4.944;2022-12-29T19:51:10;6.80;99.90
14709;DHT22;7445;50.774;4.944;2022-12-29T19:53:36;6.80;99.90
14709;DHT22;7445;50.774;4.944;2022-12-29T19:56:06;6.70;99.90
14709;DHT22;7445;50.774;4.944;2022-12-29T19:58:33;6.70;99.90
14709;DHT22;7445;50.774;4.944;2022-12-29T20:03:30;6.70;99.90
14709;DHT22;7445;50.774;4.944;2022-12-29T20:05:55;6.70;99.90
14709;DHT22;7445;50.774;4.944;2022-12-29T20:08:21;6.70;99.90
14709;DHT22;7445;50.774;4.944;2022-12-29T20:10:57;6.60;99.90
14709;DHT22;7445;50.774;4.944;2022-12-29T20:13:23;6.60;99.90
14709;DHT22;7445;50.774;4.944;2022-12-29T20:15:49;6.60;99.90
14709;DHT22;7445;50.774;4.944;2022-12-29T20:18:15;6.60;99.90
14709;DHT22;7445;50.774;4.944;2022-12-29T20:20:41;6.60;99.90
14709;DHT22;7445;50.774;4.944;2022-12-29T20:23:06;6.60;99.90
14709;DHT22;7445;50.774;4.944;2022-12-29T20:25:32;6.60;99.90
14709;DHT22;7445;50.774;4.944;2022-12-29T20:27:58;6.50;99.90
14709;DHT22;7445;50.774;4.944;2022-12-29T20:30:24;6.50;99.90
14709;DHT22;7445;50.774;4.944;2022-12-29T20:32:50;6.40;99.90
14709;DHT22;7445;50.774;4.944;2022-12-29T20:35:16;6.50;99.90
14709;DHT22;7445;50.774;4.944;2022-12-29T20:37:42;6.40;99.90
14709;DHT22;7445;50.774;4.944;2022-12-29T20:40:07;6.40;99.90
14709;DHT22;7445;50.774;4.944;2022-12-29T20:42:33;6.40;99.90
14709;DHT22;7445;50.774;4.944;2022-12-29T20:44:59;6.40;99.90
14709;DHT22;7445;50.774;4.944;2022-12-29T20:47:26;6.30;99.90
14709;DHT22;7445;50.774;4.944;2022-12-29T20:49:52;6.30;99.90
14709;DHT22;7445;50.774;4.944;2022-12-29T20:52:18;6.30;99.90
14709;DHT22;7445;50.774;4.944;2022-12-29T20:54:44;6.30;99.90
14709;DHT22;7445;50.774;4.944;2022-12-29T20:57:10;6.20;99.90
14709;DHT22;7445;50.774;4.944;2022-12-29T20:59:36;6.20;99.90
14709;DHT22;7445;50.774;4.944;2022-12-29T21:02:01;6.20;99.90
14709;DHT22;7445;50.774;4.944;2022-12-29T21:04:27;6.20;99.90
14709;DHT22;7445;50.774;4.944;2022-12-29T21:06:53;6.30;99.90
14709;DHT22;7445;50.774;4.944;2022-12-29T21:09:19;6.20;99.90
14709;DHT22;7445;50.774;4.944;2022-12-29T21:11:45;6.30;99.90
14709;DHT22;7445;50.774;4.944;2022-12-29T21:14:11;6.30;99.90
14709;DHT22;7445;50.774;4.944;2022-12-29T21:16:37;6.20;99.90
14709;DHT22;7445;50.774;4.944;2022-12-29T21:19:02;6.20;99.90
14709;DHT22;7445;50.774;4.944;2022-12-29T21:21:28;6.10;99.90
14709;DHT22;7445;50.774;4.944;2022-12-29T21:23:54;6.10;99.90
14709;DHT22;7445;50.774;4.944;2022-12-29T21:26:22;6.10;99.90
14709;DHT22;7445;50.774;4.944;2022-12-29T21:28:48;6.10;99.90
14709;DHT22;7445;50.774;4.944;2022-12-29T21:31:26;6.10;99.90
14709;DHT22;7445;50.774;4.944;2022-12-29T21:33:53;6.10;99.90
14709;DHT22;7445;50.774;4.944;2022-12-29T21:36:19;6.20;99.90
14709;DHT22;7445;50.774;4.944;2022-12-29T21:38:45;6.20;99.90
14709;DHT22;7445;50.774;4.944;2022-12-29T21:41:13;6.20;99.90
14709;DHT22;7445;50.774;4.944;2022-12-29T21:43:40;6.20;99.90
14709;DHT22;7445;50.774;4.944;2022-12-29T21:46:06;6.10;99.90
14709;DHT22;7445;50.774;4.944;2022-12-29T21:48:33;6.20;99.90
14709;DHT22;7445;50.774;4.944;2022-12-29T21:51:07;6.20;99.90
14709;DHT22;7445;50.774;4.944;2022-12-29T21:53:57;6.20;99.90
14709;DHT22;7445;50.774;4.944;2022-12-29T21:56:43;6.10;99.90
14709;DHT22;7445;50.774;4.944;2022-12-29T21:59:11;6.00;99.90
14709;DHT22;7445;50.774;4.944;2022-12-29T22:01:56;5.90;99.90
14709;DHT22;7445;50.774;4.944;2022-12-29T22:04:40;5.90;99.90
14709;DHT22;7445;50.774;4.944;2022-12-29T22:07:24;6.00;99.90
14709;DHT22;7445;50.774;4.944;2022-12-29T22:10:08;6.00;99.90
14709;DHT22;7445;50.774;4.944;2022-12-29T22:12:52;6.00;99.90
14709;DHT22;7445;50.774;4.944;2022-12-29T22:15:35;6.00;99.90
14709;DHT22;7445;50.774;4.944;2022-12-29T22:18:02;6.00;99.90
14709;DHT22;7445;50.774;4.944;2022-12-29T22:20:31;6.00;99.90
14709;DHT22;7445;50.774;4.944;2022-12-29T22:22:57;6.00;99.90
14709;DHT22;7445;50.774;4.944;2022-12-29T22:25:22;6.00;99.90
14709;DHT22;7445;50.774;4.944;2022-12-29T22:27:49;6.00;99.90
14709;DHT22;7445;50.774;4.944;2022-12-29T22:30:16;6.00;99.90
14709;DHT22;7445;50.774;4.944;2022-12-29T22:32:42;6.00;99.90
14709;DHT22;7445;50.774;4.944;2022-12-29T22:35:08;6.00;99.90
14709;DHT22;7445;50.774;4.944;2022-12-29T22:37:35;6.00;99.90
14709;DHT22;7445;50.774;4.944;2022-12-29T22:40:02;6.00;99.90
14709;DHT22;7445;50.774;4.944;2022-12-29T22:42:28;6.10;99.90
14709;DHT22;7445;50.774;4.944;2022-12-29T22:44:54;6.00;99.90
14709;DHT22;7445;50.774;4.944;2022-12-29T22:47:20;6.00;99.90
14709;DHT22;7445;50.774;4.944;2022-12-29T22:49:45;5.90;99.90
14709;DHT22;7445;50.774;4.944;2022-12-29T22:52:11;5.90;99.90
